sensor_id;sensor_type;location;lat;lon;timestamp;pressure;altitude;pressure_sealevel;temperature;humidity
49044;BME280;34860;48.066;14.124;2024-02-16T00:00:55;96706.09;;;6.50;69.50
49044;BME280;34860;48.066;14.124;2024-02-16T00:03:46;96709.66;;;6.47;69.35
49044;BME280;34860;48.066;14.124;2024-02-16T00:06:36;96708.94;;;6.39;69.62
49044;BME280;34860;48.066;14.124;2024-02-16T00:09:25;96709.34;;;6.38;69.71
49044;BME280;34860;48.066;14.124;2024-02-16T00:12:14;96706.94;;;6.43;69.54
49044;BME280;34860;48.066;14.124;2024-02-16T00:15:04;96700.25;;;6.41;69.56
49044;BME280;34860;48.066;14.124;2024-02-16T00:17:53;96709.38;;;6.34;69.83
49044;BME280;34860;48.066;14.124;2024-02-16T00:20:44;96698.84;;;6.22;70.19
49044;BME280;34860;48.066;14.124;2024-02-16T00:23:34;96697.72;;;6.12;70.46
49044;BME280;34860;48.066;14.124;2024-02-16T00:26:23;96702.03;;;6.16;70.15
49044;BME280;34860;48.066;14.124;2024-02-16T00:29:12;96698.03;;;6.25;69.80
49044;BME280;34860;48.066;14.124;2024-02-16T00:32:01;96685.78;;;6.26;69.72
49044;BME280;34860;48.066;14.124;2024-02-16T00:34:50;96691.41;;;6.15;69.96
49044;BME280;34860;48.066;14.124;2024-02-16T00:37:43;96691.88;;;6.03;70.24
49044;BME280;34860;48.066;14.124;2024-02-16T00:40:33;96683.72;;;5.85;70.86
49044;BME280;34860;48.066;14.124;2024-02-16T00:43:23;96689.72;;;5.72;71.13
49044;BME280;34860;48.066;14.124;2024-02-16T00:46:12;96688.97;;;5.64;71.28
49044;BME280;34860;48.066;14.124;2024-02-16T00:49:01;96689.78;;;5.65;71.26
49044;BME280;34860;48.066;14.124;2024-02-16T00:51:51;96688.16;;;5.68;71.14
49044;BME280;34860;48.066;14.124;2024-02-16T00:54:43;96679.50;;;5.73;71.15
49044;BME280;34860;48.066;14.124;2024-02-16T00:57:32;96675.88;;;5.76;70.89
49044;BME280;34860;48.066;14.124;2024-02-16T01:00:22;96683.06;;;5.66;70.66
49044;BME280;34860;48.066;14.124;2024-02-16T01:03:12;96679.63;;;5.44;71.27
49044;BME280;34860;48.066;14.124;2024-02-16T01:06:01;96685.22;;;5.30;71.51
49044;BME280;34860;48.066;14.124;2024-02-16T01:08:52;96680.09;;;5.35;71.57
49044;BME280;34860;48.066;14.124;2024-02-16T01:11:43;96678.06;;;5.46;71.06
49044;BME280;34860;48.066;14.124;2024-02-16T01:14:35;96682.75;;;5.57;70.66
49044;BME280;34860;48.066;14.124;2024-02-16T01:17:25;96673.63;;;5.60;70.35
49044;BME280;34860;48.066;14.124;2024-02-16T01:20:14;96681.50;;;5.65;70.18
49044;BME280;34860;48.066;14.124;2024-02-16T01:23:03;96674.78;;;5.66;69.89
49044;BME280;34860;48.066;14.124;2024-02-16T01:25:52;96675.59;;;5.67;69.74
49044;BME280;34860;48.066;14.124;2024-02-16T01:28:43;96677.53;;;5.66;69.60
49044;BME280;34860;48.066;14.124;2024-02-16T01:31:33;96678.81;;;5.54;69.93
49044;BME280;34860;48.066;14.124;2024-02-16T01:34:23;96683.16;;;5.48;70.18
49044;BME280;34860;48.066;14.124;2024-02-16T01:37:13;96677.28;;;5.42;70.30
49044;BME280;34860;48.066;14.124;2024-02-16T01:40:02;96676.09;;;5.43;70.43
49044;BME280;34860;48.066;14.124;2024-02-16T01:42:51;96678.09;;;5.43;70.26
49044;BME280;34860;48.066;14.124;2024-02-16T01:45:42;96664.03;;;5.26;70.63
49044;BME280;34860;48.066;14.124;2024-02-16T01:48:32;96673.84;;;5.24;70.81
49044;BME280;34860;48.066;14.124;2024-02-16T01:51:22;96673.47;;;5.25;70.50
49044;BME280;34860;48.066;14.124;2024-02-16T01:54:12;96659.66;;;5.29;70.27
49044;BME280;34860;48.066;14.124;2024-02-16T01:57:03;96657.28;;;5.31;69.83
49044;BME280;34860;48.066;14.124;2024-02-16T01:59:55;96659.66;;;5.29;69.86
49044;BME280;34860;48.066;14.124;2024-02-16T02:02:47;96654.16;;;5.25;69.76
49044;BME280;34860;48.066;14.124;2024-02-16T02:05:44;96652.25;;;5.19;69.89
49044;BME280;34860;48.066;14.124;2024-02-16T02:08:34;96652.25;;;5.12;69.71
49044;BME280;34860;48.066;14.124;2024-02-16T02:11:24;96650.72;;;5.07;69.60
49044;BME280;34860;48.066;14.124;2024-02-16T02:14:13;96655.06;;;5.04;69.91
49044;BME280;34860;48.066;14.124;2024-02-16T02:17:03;96652.72;;;5.03;69.93
49044;BME280;34860;48.066;14.124;2024-02-16T02:19:53;96642.47;;;5.03;69.97
49044;BME280;34860;48.066;14.124;2024-02-16T02:22:44;96637.38;;;5.02;69.94
49044;BME280;34860;48.066;14.124;2024-02-16T02:25:33;96631.09;;;5.01;70.03
49044;BME280;34860;48.066;14.124;2024-02-16T02:28:24;96631.09;;;5.01;69.95
49044;BME280;34860;48.066;14.124;2024-02-16T02:31:13;96635.00;;;5.00;70.04
49044;BME280;34860;48.066;14.124;2024-02-16T02:34:02;96624.03;;;4.97;70.03
49044;BME280;34860;48.066;14.124;2024-02-16T02:36:52;96617.34;;;4.94;70.02
49044;BME280;34860;48.066;14.124;2024-02-16T02:39:44;96618.13;;;4.91;70.01
49044;BME280;34860;48.066;14.124;2024-02-16T02:42:33;96622.50;;;4.88;70.11
49044;BME280;34860;48.066;14.124;2024-02-16T02:45:22;96626.81;;;4.86;70.25
49044;BME280;34860;48.066;14.124;2024-02-16T02:48:12;96626.41;;;4.87;70.30
49044;BME280;34860;48.066;14.124;2024-02-16T02:51:02;96624.06;;;4.86;70.19
49044;BME280;34860;48.066;14.124;2024-02-16T02:53:51;96630.75;;;4.88;70.22
49044;BME280;34860;48.066;14.124;2024-02-16T02:56:43;96632.69;;;4.88;70.26
49044;BME280;34860;48.066;14.124;2024-02-16T02:59:32;96624.06;;;4.86;70.44
49044;BME280;34860;48.066;14.124;2024-02-16T03:02:21;96620.53;;;4.85;70.38
49044;BME280;34860;48.066;14.124;2024-02-16T03:05:10;96638.19;;;4.88;70.42
49044;BME280;34860;48.066;14.124;2024-02-16T03:08:00;96632.69;;;4.88;70.29
49044;BME280;34860;48.066;14.124;2024-02-16T03:10:50;96633.91;;;4.83;70.66
49044;BME280;34860;48.066;14.124;2024-02-16T03:13:41;96632.75;;;4.77;71.00
49044;BME280;34860;48.066;14.124;2024-02-16T03:16:30;96631.94;;;4.80;71.06
49044;BME280;34860;48.066;14.124;2024-02-16T03:19:19;96628.00;;;4.85;70.96
49044;BME280;34860;48.066;14.124;2024-02-16T03:22:10;96633.91;;;4.87;70.66
49044;BME280;34860;48.066;14.124;2024-02-16T03:25:00;96637.81;;;4.89;70.74
49044;BME280;34860;48.066;14.124;2024-02-16T03:27:49;96643.72;;;4.91;70.60
49044;BME280;34860;48.066;14.124;2024-02-16T03:30:40;96633.91;;;4.87;70.67
49044;BME280;34860;48.066;14.124;2024-02-16T03:33:30;96638.22;;;4.84;70.63
49044;BME280;34860;48.066;14.124;2024-02-16T03:36:19;96630.75;;;4.85;70.64
49044;BME280;34860;48.066;14.124;2024-02-16T03:39:10;96643.38;;;4.79;70.53
49044;BME280;34860;48.066;14.124;2024-02-16T03:42:02;96636.31;;;4.74;70.76
49044;BME280;34860;48.066;14.124;2024-02-16T03:44:52;96637.50;;;4.69;70.67
49044;BME280;34860;48.066;14.124;2024-02-16T03:47:42;96634.75;;;4.66;70.80
49044;BME280;34860;48.066;14.124;2024-02-16T03:50:31;96636.34;;;4.63;70.89
49044;BME280;34860;48.066;14.124;2024-02-16T03:53:20;96637.53;;;4.62;70.94
49044;BME280;34860;48.066;14.124;2024-02-16T03:56:10;96634.81;;;4.55;70.91
49044;BME280;34860;48.066;14.124;2024-02-16T03:58:59;96637.16;;;4.53;70.93
49044;BME280;34860;48.066;14.124;2024-02-16T04:01:48;96639.53;;;4.51;70.88
49044;BME280;34860;48.066;14.124;2024-02-16T04:04:40;96639.16;;;4.49;70.92
49044;BME280;34860;48.066;14.124;2024-02-16T04:07:29;96640.72;;;4.46;70.87
49044;BME280;34860;48.066;14.124;2024-02-16T04:10:19;96630.91;;;4.45;70.83
49044;BME280;34860;48.066;14.124;2024-02-16T04:13:08;96635.19;;;4.46;70.87
49044;BME280;34860;48.066;14.124;2024-02-16T04:15:57;96642.69;;;4.46;70.97
49044;BME280;34860;48.066;14.124;2024-02-16T04:18:46;96635.59;;;4.45;70.85
49044;BME280;34860;48.066;14.124;2024-02-16T04:21:37;96637.19;;;4.46;70.98
49044;BME280;34860;48.066;14.124;2024-02-16T04:24:26;96638.38;;;4.41;70.92
49044;BME280;34860;48.066;14.124;2024-02-16T04:27:15;96643.88;;;4.38;71.02
49044;BME280;34860;48.066;14.124;2024-02-16T04:30:06;96640.34;;;4.33;71.05
49044;BME280;34860;48.066;14.124;2024-02-16T04:32:55;96637.19;;;4.35;71.10
49044;BME280;34860;48.066;14.124;2024-02-16T04:35:44;96635.63;;;4.34;71.01
49044;BME280;34860;48.066;14.124;2024-02-16T04:38:37;96627.00;;;4.32;71.21
49044;BME280;34860;48.066;14.124;2024-02-16T04:41:26;96625.03;;;4.29;71.17
49044;BME280;34860;48.066;14.124;2024-02-16T04:44:18;96627.78;;;4.29;71.13
49044;BME280;34860;48.066;14.124;2024-02-16T04:47:09;96636.03;;;4.25;71.10
49044;BME280;34860;48.066;14.124;2024-02-16T04:50:02;96633.28;;;4.25;70.97
49044;BME280;34860;48.066;14.124;2024-02-16T04:52:52;96634.06;;;4.26;71.13
49044;BME280;34860;48.066;14.124;2024-02-16T04:55:43;96634.88;;;4.26;71.11
49044;BME280;34860;48.066;14.124;2024-02-16T04:58:32;96635.66;;;4.27;70.97
49044;BME280;34860;48.066;14.124;2024-02-16T05:01:21;96641.53;;;4.25;71.24
49044;BME280;34860;48.066;14.124;2024-02-16T05:04:10;96640.34;;;4.23;71.46
49044;BME280;34860;48.066;14.124;2024-02-16T05:07:01;96636.84;;;4.22;71.32
49044;BME280;34860;48.066;14.124;2024-02-16T05:09:50;96636.44;;;4.27;71.56
49044;BME280;34860;48.066;14.124;2024-02-16T05:12:45;96636.44;;;4.31;71.50
49044;BME280;34860;48.066;14.124;2024-02-16T05:15:34;96635.22;;;4.35;71.28
49044;BME280;34860;48.066;14.124;2024-02-16T05:18:23;96636.81;;;4.33;71.39
49044;BME280;34860;48.066;14.124;2024-02-16T05:21:12;96638.41;;;4.16;71.91
49044;BME280;34860;48.066;14.124;2024-02-16T05:24:02;96637.25;;;4.03;72.59
49044;BME280;34860;48.066;14.124;2024-02-16T05:26:51;96645.53;;;3.85;72.94
49044;BME280;34860;48.066;14.124;2024-02-16T05:29:44;96644.72;;;3.70;73.50
49044;BME280;34860;48.066;14.124;2024-02-16T05:32:34;96644.31;;;3.60;73.70
49044;BME280;34860;48.066;14.124;2024-02-16T05:35:24;96641.56;;;3.57;74.08
49044;BME280;34860;48.066;14.124;2024-02-16T05:38:16;96646.69;;;3.69;73.65
49044;BME280;34860;48.066;14.124;2024-02-16T05:41:19;96640.41;;;3.83;73.31
49044;BME280;34860;48.066;14.124;2024-02-16T05:44:08;96640.00;;;3.92;72.72
49044;BME280;34860;48.066;14.124;2024-02-16T05:46:59;96631.38;;;4.04;72.43
49044;BME280;34860;48.066;14.124;2024-02-16T05:49:48;96638.03;;;4.14;71.86
49044;BME280;34860;48.066;14.124;2024-02-16T05:52:38;96638.41;;;4.19;71.63
49044;BME280;34860;48.066;14.124;2024-02-16T05:55:28;96646.66;;;4.23;71.48
49044;BME280;34860;48.066;14.124;2024-02-16T05:58:17;96644.69;;;4.24;71.37
49044;BME280;34860;48.066;14.124;2024-02-16T06:01:06;96651.38;;;4.19;71.00
49044;BME280;34860;48.066;14.124;2024-02-16T06:03:59;96645.09;;;4.11;71.18
49044;BME280;34860;48.066;14.124;2024-02-16T06:06:48;96654.94;;;4.09;71.07
49044;BME280;34860;48.066;14.124;2024-02-16T06:09:37;96655.31;;;4.04;71.04
49044;BME280;34860;48.066;14.124;2024-02-16T06:12:27;96656.91;;;3.97;71.07
49044;BME280;34860;48.066;14.124;2024-02-16T06:15:16;96661.22;;;3.95;71.10
49044;BME280;34860;48.066;14.124;2024-02-16T06:18:05;96659.63;;;3.94;71.04
49044;BME280;34860;48.066;14.124;2024-02-16T06:21:17;96670.63;;;3.94;71.18
49044;BME280;34860;48.066;14.124;2024-02-16T06:24:06;96676.94;;;3.94;71.00
49044;BME280;34860;48.066;14.124;2024-02-16T06:26:56;96680.09;;;3.93;70.69
49044;BME280;34860;48.066;14.124;2024-02-16T06:29:45;96685.56;;;3.89;70.80
49044;BME280;34860;48.066;14.124;2024-02-16T06:32:35;96688.31;;;3.86;70.84
49044;BME280;34860;48.066;14.124;2024-02-16T06:35:25;96681.25;;;3.81;70.61
49044;BME280;34860;48.066;14.124;2024-02-16T06:38:15;96695.78;;;3.78;70.98
49044;BME280;34860;48.066;14.124;2024-02-16T06:41:05;96693.41;;;3.73;70.94
49044;BME280;34860;48.066;14.124;2024-02-16T06:43:55;96698.53;;;3.74;70.85
49044;BME280;34860;48.066;14.124;2024-02-16T06:46:44;96695.38;;;3.76;70.90
49044;BME280;34860;48.066;14.124;2024-02-16T06:49:33;96700.47;;;3.81;70.99
49044;BME280;34860;48.066;14.124;2024-02-16T06:52:23;96700.91;;;3.83;70.74
49044;BME280;34860;48.066;14.124;2024-02-16T06:55:14;96709.53;;;3.85;70.85
49044;BME280;34860;48.066;14.124;2024-02-16T06:58:03;96713.88;;;3.86;70.98
49044;BME280;34860;48.066;14.124;2024-02-16T07:00:52;96709.91;;;3.87;70.82
49044;BME280;34860;48.066;14.124;2024-02-16T07:03:43;96713.84;;;3.90;70.66
49044;BME280;34860;48.066;14.124;2024-02-16T07:06:32;96718.97;;;3.91;70.79
49044;BME280;34860;48.066;14.124;2024-02-16T07:09:22;96713.84;;;3.97;70.77
49044;BME280;34860;48.066;14.124;2024-02-16T07:12:12;96720.53;;;4.03;70.81
49044;BME280;34860;48.066;14.124;2024-02-16T07:15:02;96714.63;;;4.08;70.64
49044;BME280;34860;48.066;14.124;2024-02-16T07:17:53;96723.69;;;4.12;70.60
49044;BME280;34860;48.066;14.124;2024-02-16T07:20:42;96725.66;;;4.19;70.79
49044;BME280;34860;48.066;14.124;2024-02-16T07:23:33;96726.44;;;4.27;70.70
49044;BME280;34860;48.066;14.124;2024-02-16T07:26:22;96730.34;;;4.36;70.61
49044;BME280;34860;48.066;14.124;2024-02-16T07:29:13;96731.94;;;4.41;70.66
49044;BME280;34860;48.066;14.124;2024-02-16T07:32:04;96721.31;;;4.47;70.66
49044;BME280;34860;48.066;14.124;2024-02-16T07:34:54;96725.22;;;4.49;70.55
49044;BME280;34860;48.066;14.124;2024-02-16T07:37:43;96723.66;;;4.52;70.54
49044;BME280;34860;48.066;14.124;2024-02-16T07:40:32;96715.81;;;4.50;70.51
49044;BME280;34860;48.066;14.124;2024-02-16T07:43:21;96720.50;;;4.50;70.53
49044;BME280;34860;48.066;14.124;2024-02-16T07:46:13;96727.19;;;4.56;70.72
49044;BME280;34860;48.066;14.124;2024-02-16T07:49:02;96732.69;;;4.63;70.68
49044;BME280;34860;48.066;14.124;2024-02-16T07:51:52;96738.94;;;4.67;70.70
49044;BME280;34860;48.066;14.124;2024-02-16T07:54:41;96729.91;;;4.70;70.61
49044;BME280;34860;48.066;14.124;2024-02-16T07:57:30;96728.34;;;4.73;70.72
49044;BME280;34860;48.066;14.124;2024-02-16T08:00:21;96731.47;;;4.79;70.63
49044;BME280;34860;48.066;14.124;2024-02-16T08:03:12;96731.44;;;4.86;70.60
49044;BME280;34860;48.066;14.124;2024-02-16T08:06:01;96745.56;;;4.99;70.37
49044;BME280;34860;48.066;14.124;2024-02-16T08:08:51;96746.72;;;5.08;70.20
49044;BME280;34860;48.066;14.124;2024-02-16T08:11:40;96747.09;;;5.14;70.26
49044;BME280;34860;48.066;14.124;2024-02-16T08:14:30;96741.97;;;5.20;70.24
49044;BME280;34860;48.066;14.124;2024-02-16T08:17:20;96749.03;;;5.24;70.27
49044;BME280;34860;48.066;14.124;2024-02-16T08:20:11;96750.56;;;5.33;70.22
49044;BME280;34860;48.066;14.124;2024-02-16T08:23:02;96750.16;;;5.41;70.17
49044;BME280;34860;48.066;14.124;2024-02-16T08:25:51;96752.88;;;5.45;70.08
49044;BME280;34860;48.066;14.124;2024-02-16T08:28:43;96758.38;;;5.52;70.18
49044;BME280;34860;48.066;14.124;2024-02-16T08:31:32;96761.47;;;5.58;70.24
49044;BME280;34860;48.066;14.124;2024-02-16T08:34:21;96761.09;;;5.59;70.31
49044;BME280;34860;48.066;14.124;2024-02-16T08:37:16;96759.09;;;5.60;70.53
49044;BME280;34860;48.066;14.124;2024-02-16T08:40:06;96765.00;;;5.58;70.52
49044;BME280;34860;48.066;14.124;2024-02-16T08:43:01;96761.88;;;5.56;70.86
49044;BME280;34860;48.066;14.124;2024-02-16T08:45:51;96762.63;;;5.64;70.79
49044;BME280;34860;48.066;14.124;2024-02-16T08:48:40;96762.22;;;5.66;70.50
49044;BME280;34860;48.066;14.124;2024-02-16T08:51:31;96762.22;;;5.69;70.48
49044;BME280;34860;48.066;14.124;2024-02-16T08:54:22;96759.03;;;5.78;70.59
49044;BME280;34860;48.066;14.124;2024-02-16T08:57:12;96765.69;;;5.84;70.35
49044;BME280;34860;48.066;14.124;2024-02-16T09:00:01;96773.09;;;5.94;70.08
49044;BME280;34860;48.066;14.124;2024-02-16T09:02:51;96771.91;;;5.99;70.30
49044;BME280;34860;48.066;14.124;2024-02-16T09:05:41;96769.56;;;5.97;70.44
49044;BME280;34860;48.066;14.124;2024-02-16T09:08:31;96773.50;;;5.96;70.32
49044;BME280;34860;48.066;14.124;2024-02-16T09:11:23;96774.69;;;5.99;70.32
49044;BME280;34860;48.066;14.124;2024-02-16T09:14:12;96777.81;;;6.01;70.37
49044;BME280;34860;48.066;14.124;2024-02-16T09:17:01;96780.19;;;5.99;70.32
49044;BME280;34860;48.066;14.124;2024-02-16T09:19:51;96782.53;;;6.04;70.34
49044;BME280;34860;48.066;14.124;2024-02-16T09:22:41;96778.94;;;6.14;70.20
49044;BME280;34860;48.066;14.124;2024-02-16T09:25:33;96773.34;;;6.22;70.14
49044;BME280;34860;48.066;14.124;2024-02-16T09:28:26;96775.75;;;6.16;69.81
49044;BME280;34860;48.066;14.124;2024-02-16T09:31:15;96776.19;;;6.07;70.24
49044;BME280;34860;48.066;14.124;2024-02-16T09:34:05;96779.72;;;6.08;70.26
49044;BME280;34860;48.066;14.124;2024-02-16T09:36:55;96785.56;;;6.21;70.33
49044;BME280;34860;48.066;14.124;2024-02-16T09:39:44;96785.84;;;6.37;69.83
49044;BME280;34860;48.066;14.124;2024-02-16T09:42:35;96790.16;;;6.42;70.05
49044;BME280;34860;48.066;14.124;2024-02-16T09:45:30;96802.84;;;6.32;70.28
49044;BME280;34860;48.066;14.124;2024-02-16T09:48:20;96797.69;;;6.34;70.60
49044;BME280;34860;48.066;14.124;2024-02-16T09:51:09;96802.59;;;6.08;71.28
49044;BME280;34860;48.066;14.124;2024-02-16T09:53:59;96796.75;;;5.95;72.43
49044;BME280;34860;48.066;14.124;2024-02-16T09:56:48;96797.03;;;6.19;71.99
49044;BME280;34860;48.066;14.124;2024-02-16T09:59:38;96803.16;;;6.41;71.10
49044;BME280;34860;48.066;14.124;2024-02-16T10:02:28;96802.63;;;6.61;71.01
49044;BME280;34860;48.066;14.124;2024-02-16T10:05:29;96809.97;;;6.78;70.64
49044;BME280;34860;48.066;14.124;2024-02-16T10:08:19;96812.56;;;6.96;70.14
49044;BME280;34860;48.066;14.124;2024-02-16T10:11:08;96815.25;;;7.03;69.88
49044;BME280;34860;48.066;14.124;2024-02-16T10:13:58;96806.97;;;7.03;69.79
49044;BME280;34860;48.066;14.124;2024-02-16T10:16:59;96823.63;;;6.96;69.87
49044;BME280;34860;48.066;14.124;2024-02-16T10:19:57;96817.72;;;6.94;69.66
49044;BME280;34860;48.066;14.124;2024-02-16T10:22:46;96827.13;;;7.00;69.73
49044;BME280;34860;48.066;14.124;2024-02-16T10:25:39;96823.53;;;7.03;69.76
49044;BME280;34860;48.066;14.124;2024-02-16T10:28:29;96818.22;;;6.82;70.37
49044;BME280;34860;48.066;14.124;2024-02-16T10:31:23;96818.28;;;6.75;70.38
49044;BME280;34860;48.066;14.124;2024-02-16T10:34:16;96821.03;;;6.75;70.71
49044;BME280;34860;48.066;14.124;2024-02-16T10:37:08;96820.63;;;6.80;70.89
49044;BME280;34860;48.066;14.124;2024-02-16T10:39:59;96808.47;;;6.66;71.58
49044;BME280;34860;48.066;14.124;2024-02-16T10:42:49;96811.94;;;6.81;71.61
49044;BME280;34860;48.066;14.124;2024-02-16T10:45:40;96814.84;;;7.05;71.02
49044;BME280;34860;48.066;14.124;2024-02-16T10:48:29;96810.69;;;7.24;70.73
49044;BME280;34860;48.066;14.124;2024-02-16T10:51:24;96810.84;;;7.48;70.14
49044;BME280;34860;48.066;14.124;2024-02-16T10:54:18;96810.94;;;7.40;70.43
49044;BME280;34860;48.066;14.124;2024-02-16T10:57:09;96817.31;;;7.34;71.07
49044;BME280;34860;48.066;14.124;2024-02-16T10:59:59;96809.88;;;7.27;71.55
49044;BME280;34860;48.066;14.124;2024-02-16T11:02:52;96804.03;;;7.21;72.03
49044;BME280;34860;48.066;14.124;2024-02-16T11:05:43;96811.09;;;7.22;72.27
49044;BME280;34860;48.066;14.124;2024-02-16T11:08:37;96806.28;;;7.30;72.40
49044;BME280;34860;48.066;14.124;2024-02-16T11:11:28;96804.84;;;7.18;72.67
49044;BME280;34860;48.066;14.124;2024-02-16T11:14:18;96798.25;;;7.05;72.85
49044;BME280;34860;48.066;14.124;2024-02-16T11:17:07;96798.66;;;7.03;73.19
49044;BME280;34860;48.066;14.124;2024-02-16T11:19:59;96797.53;;;7.01;72.97
49044;BME280;34860;48.066;14.124;2024-02-16T11:22:50;96802.69;;;6.95;73.24
49044;BME280;34860;48.066;14.124;2024-02-16T11:25:49;96814.91;;;6.98;73.33
49044;BME280;34860;48.066;14.124;2024-02-16T11:28:40;96803.81;;;7.01;73.29
49044;BME280;34860;48.066;14.124;2024-02-16T11:31:30;96806.59;;;7.01;72.99
49044;BME280;34860;48.066;14.124;2024-02-16T11:34:22;96798.97;;;7.13;72.88
49044;BME280;34860;48.066;14.124;2024-02-16T11:37:13;96804.44;;;7.20;72.64
49044;BME280;34860;48.066;14.124;2024-02-16T11:40:04;96802.50;;;7.17;72.79
49044;BME280;34860;48.066;14.124;2024-02-16T11:42:59;96797.34;;;7.19;72.86
49044;BME280;34860;48.066;14.124;2024-02-16T11:45:50;96804.41;;;7.23;72.57
49044;BME280;34860;48.066;14.124;2024-02-16T11:48:40;96812.19;;;7.32;72.53
49044;BME280;34860;48.066;14.124;2024-02-16T11:51:29;96803.47;;;7.34;72.21
49044;BME280;34860;48.066;14.124;2024-02-16T11:54:18;96801.63;;;7.23;72.55
49044;BME280;34860;48.066;14.124;2024-02-16T11:57:07;96801.28;;;7.21;72.96
49044;BME280;34860;48.066;14.124;2024-02-16T11:59:58;96797.13;;;7.37;72.63
49044;BME280;34860;48.066;14.124;2024-02-16T12:02:58;96794.25;;;7.48;72.60
49044;BME280;34860;48.066;14.124;2024-02-16T12:05:51;96786.22;;;7.88;71.51
49044;BME280;34860;48.066;14.124;2024-02-16T12:08:41;96793.13;;;8.30;70.62
49044;BME280;34860;48.066;14.124;2024-02-16T12:11:30;96787.88;;;8.40;70.38
49044;BME280;34860;48.066;14.124;2024-02-16T12:14:21;96783.88;;;8.44;70.35
49044;BME280;34860;48.066;14.124;2024-02-16T12:17:11;96792.78;;;8.56;70.33
49044;BME280;34860;48.066;14.124;2024-02-16T12:20:03;96785.09;;;8.67;70.12
49044;BME280;34860;48.066;14.124;2024-02-16T12:23:10;96783.84;;;8.68;69.94
49044;BME280;34860;48.066;14.124;2024-02-16T12:26:00;96781.81;;;8.72;69.52
49044;BME280;34860;48.066;14.124;2024-02-16T12:28:49;96784.78;;;8.85;69.31
49044;BME280;34860;48.066;14.124;2024-02-16T12:31:39;96785.94;;;8.87;69.21
49044;BME280;34860;48.066;14.124;2024-02-16T12:34:29;96790.66;;;8.87;69.21
49044;BME280;34860;48.066;14.124;2024-02-16T12:37:20;96784.00;;;8.84;69.09
49044;BME280;34860;48.066;14.124;2024-02-16T12:40:10;96785.53;;;8.85;69.30
49044;BME280;34860;48.066;14.124;2024-02-16T12:42:59;96784.59;;;8.96;69.23
49044;BME280;34860;48.066;14.124;2024-02-16T12:45:48;96784.41;;;9.06;69.00
49044;BME280;34860;48.066;14.124;2024-02-16T12:48:37;96782.63;;;9.16;68.87
49044;BME280;34860;48.066;14.124;2024-02-16T12:51:27;96782.94;;;9.42;68.69
49044;BME280;34860;48.066;14.124;2024-02-16T12:54:18;96784.88;;;10.71;66.28
49044;BME280;34860;48.066;14.124;2024-02-16T12:57:12;96788.53;;;12.14;62.59
49044;BME280;34860;48.066;14.124;2024-02-16T13:00:02;96787.75;;;12.14;62.40
49044;BME280;34860;48.066;14.124;2024-02-16T13:02:54;96783.66;;;14.06;58.13
49044;BME280;34860;48.066;14.124;2024-02-16T13:05:45;96775.22;;;14.69;56.54
49044;BME280;34860;48.066;14.124;2024-02-16T13:08:34;96775.88;;;14.73;56.93
49044;BME280;34860;48.066;14.124;2024-02-16T13:11:26;96770.50;;;14.57;57.56
49044;BME280;34860;48.066;14.124;2024-02-16T13:14:16;96777.03;;;13.69;60.09
49044;BME280;34860;48.066;14.124;2024-02-16T13:17:06;96767.13;;;13.99;59.84
49044;BME280;34860;48.066;14.124;2024-02-16T13:19:55;96769.19;;;14.80;57.63
49044;BME280;34860;48.066;14.124;2024-02-16T13:22:51;96763.34;;;15.42;57.08
49044;BME280;34860;48.066;14.124;2024-02-16T13:25:40;96757.91;;;15.39;57.19
49044;BME280;34860;48.066;14.124;2024-02-16T13:28:31;96755.88;;;15.30;57.32
49044;BME280;34860;48.066;14.124;2024-02-16T13:31:21;96750.88;;;15.80;56.58
49044;BME280;34860;48.066;14.124;2024-02-16T13:34:10;96753.81;;;16.38;55.55
49044;BME280;34860;48.066;14.124;2024-02-16T13:36:59;96759.88;;;17.03;54.53
49044;BME280;34860;48.066;14.124;2024-02-16T13:39:49;96764.03;;;17.32;53.75
49044;BME280;34860;48.066;14.124;2024-02-16T13:42:38;96755.78;;;16.80;54.75
49044;BME280;34860;48.066;14.124;2024-02-16T13:45:47;96756.84;;;18.45;51.18
49044;BME280;34860;48.066;14.124;2024-02-16T13:48:37;96764.63;;;19.06;49.81
49044;BME280;34860;48.066;14.124;2024-02-16T13:51:29;96763.09;;;18.84;50.14
49044;BME280;34860;48.066;14.124;2024-02-16T13:54:18;96766.31;;;18.98;49.88
49044;BME280;34860;48.066;14.124;2024-02-16T13:57:09;96767.47;;;19.06;49.73
49044;BME280;34860;48.066;14.124;2024-02-16T13:59:59;96774.31;;;17.74;52.59
49044;BME280;34860;48.066;14.124;2024-02-16T14:03:00;96766.59;;;16.39;55.80
49044;BME280;34860;48.066;14.124;2024-02-16T14:05:49;96769.91;;;16.95;54.74
49044;BME280;34860;48.066;14.124;2024-02-16T14:08:39;96769.63;;;18.61;51.29
49044;BME280;34860;48.066;14.124;2024-02-16T14:11:31;96774.56;;;19.63;48.72
49044;BME280;34860;48.066;14.124;2024-02-16T14:14:21;96764.66;;;19.73;48.51
49044;BME280;34860;48.066;14.124;2024-02-16T14:17:12;96770.47;;;19.64;48.39
49044;BME280;34860;48.066;14.124;2024-02-16T14:20:05;96763.91;;;18.55;50.50
49044;BME280;34860;48.066;14.124;2024-02-16T14:22:54;96771.72;;;17.47;52.94
49044;BME280;34860;48.066;14.124;2024-02-16T14:25:44;96776.44;;;16.68;54.70
49044;BME280;34860;48.066;14.124;2024-02-16T14:28:34;96785.50;;;16.20;55.95
49044;BME280;34860;48.066;14.124;2024-02-16T14:31:23;96777.81;;;15.59;57.28
49044;BME280;34860;48.066;14.124;2024-02-16T14:34:13;96781.34;;;14.95;58.89
49044;BME280;34860;48.066;14.124;2024-02-16T14:37:03;96763.38;;;14.24;60.50
49044;BME280;34860;48.066;14.124;2024-02-16T14:39:53;96775.44;;;13.80;61.92
49044;BME280;34860;48.066;14.124;2024-02-16T14:42:44;96775.16;;;13.66;61.79
49044;BME280;34860;48.066;14.124;2024-02-16T14:45:34;96780.34;;;13.54;61.94
49044;BME280;34860;48.066;14.124;2024-02-16T14:48:25;96773.28;;;13.40;61.72
49044;BME280;34860;48.066;14.124;2024-02-16T14:51:15;96775.66;;;13.29;62.00
49044;BME280;34860;48.066;14.124;2024-02-16T14:54:05;96767.78;;;13.15;62.14
49044;BME280;34860;48.066;14.124;2024-02-16T14:56:55;96778.63;;;13.00;62.31
49044;BME280;34860;48.066;14.124;2024-02-16T14:59:45;96777.00;;;12.89;62.52